createdAt,value
2018-12-26T00:02:09.845Z,100367.78
2018-12-26T00:04:38.885Z,100359.42
2018-12-26T00:07:08.088Z,100370.27
2018-12-26T00:09:37.184Z,100362.95
2018-12-26T00:12:06.910Z,100369.05
2018-12-26T00:14:35.398Z,100361.27
2018-12-26T00:17:04.215Z,100372.71
2018-12-26T00:19:33.375Z,100360.00
2018-12-26T00:22:02.210Z,100357.58
2018-12-26T00:24:31.220Z,100365.99
2018-12-26T00:27:01.053Z,100360.16
2018-12-26T00:29:30.709Z,100369.11
2018-12-26T00:31:59.872Z,100352.05
2018-12-26T00:34:29.118Z,100373.48
2018-12-26T00:36:58.151Z,100354.42
2018-12-26T00:39:27.122Z,100348.66
2018-12-26T00:41:56.227Z,100350.88
2018-12-26T00:44:24.690Z,100340.52
2018-12-26T00:46:53.278Z,100348.06
2018-12-26T00:49:22.106Z,100354.97
2018-12-26T00:51:51.044Z,100358.44
2018-12-26T00:54:19.644Z,100344.74
2018-12-26T00:56:48.824Z,100340.35
2018-12-26T00:59:17.890Z,100344.34
2018-12-26T01:01:46.460Z,100337.61
2018-12-26T01:04:15.017Z,100345.46
2018-12-26T01:06:45.023Z,100342.03
2018-12-26T01:09:13.918Z,100341.45
2018-12-26T01:11:42.556Z,100335.13
2018-12-26T01:14:12.208Z,100338.48
2018-12-26T01:16:41.814Z,100343.38
2018-12-26T01:19:10.869Z,100326.11
2018-12-26T01:21:40.426Z,100334.73
2018-12-26T01:24:09.411Z,100324.04
2018-12-26T01:26:38.033Z,100328.08
2018-12-26T01:29:06.524Z,100329.09
2018-12-26T01:31:35.579Z,100324.63
2018-12-26T01:34:04.144Z,100329.34
2018-12-26T01:36:32.664Z,100322.89
2018-12-26T01:39:01.616Z,100323.69
2018-12-26T01:41:30.642Z,100329.51
2018-12-26T01:44:00.986Z,100319.81
2018-12-26T01:46:30.022Z,100325.70
2018-12-26T01:48:59.037Z,100331.17
2018-12-26T01:51:28.039Z,100323.24
2018-12-26T01:53:57.033Z,100328.77
2018-12-26T01:56:28.110Z,100338.50
2018-12-26T01:58:56.230Z,100321.35
2018-12-26T02:01:25.906Z,100324.26
2018-12-26T02:03:55.730Z,100324.14
2018-12-26T02:06:25.269Z,100326.95
2018-12-26T02:08:54.294Z,100331.69
2018-12-26T02:11:23.366Z,100331.13
2018-12-26T02:13:52.519Z,100323.83
2018-12-26T02:16:21.575Z,100325.89
2018-12-26T02:18:50.137Z,100328.80
2018-12-26T02:21:19.135Z,100339.73
2018-12-26T02:23:49.273Z,100331.30
2018-12-26T02:26:18.825Z,100324.84
2018-12-26T02:28:48.359Z,100313.25
2018-12-26T02:31:16.897Z,100320.69
2018-12-26T02:33:45.949Z,100316.11
2018-12-26T02:36:15.637Z,100316.03
2018-12-26T02:38:44.214Z,100319.34
2018-12-26T02:41:13.212Z,100323.27
2018-12-26T02:43:43.012Z,100318.16
2018-12-26T02:46:12.703Z,100331.44
2018-12-26T02:48:41.879Z,100317.44
2018-12-26T02:51:10.897Z,100318.33
2018-12-26T02:53:39.954Z,100322.27
2018-12-26T02:56:08.644Z,100325.37
2018-12-26T02:58:38.821Z,100325.41
2018-12-26T03:01:07.850Z,100317.72
2018-12-26T03:03:36.840Z,100316.66
2018-12-26T03:06:05.431Z,100311.48
2018-12-26T03:08:36.388Z,100323.48
2018-12-26T03:11:05.996Z,100304.86
2018-12-26T03:13:34.546Z,100304.86
2018-12-26T03:16:03.566Z,100304.41
2018-12-26T03:18:32.245Z,100293.67
2018-12-26T03:21:01.627Z,100289.86
2018-12-26T03:23:30.655Z,100286.98
2018-12-26T03:25:59.808Z,100294.83
2018-12-26T03:28:28.853Z,100285.03
2018-12-26T03:30:58.458Z,100286.00
2018-12-26T03:33:27.113Z,100274.83
2018-12-26T03:35:56.122Z,100267.20
2018-12-26T03:38:25.130Z,100272.58
2018-12-26T03:40:54.665Z,100282.82
2018-12-26T03:43:23.262Z,100277.31
2018-12-26T03:45:52.312Z,100275.94
2018-12-26T03:48:20.849Z,100266.31
2018-12-26T03:50:50.506Z,100266.77
2018-12-26T03:53:20.113Z,100264.28
2018-12-26T03:55:49.105Z,100267.56
2018-12-26T03:58:18.835Z,100279.06
2018-12-26T04:00:47.740Z,100261.05
2018-12-26T04:03:17.603Z,100268.16
2018-12-26T04:05:46.617Z,100265.86
2018-12-26T04:08:15.635Z,100251.16
2018-12-26T04:10:44.661Z,100257.63
2018-12-26T04:13:13.556Z,100249.20
2018-12-26T04:15:42.587Z,100244.00
2018-12-26T04:18:12.300Z,100256.23
2018-12-26T04:20:41.271Z,100244.67
2018-12-26T04:23:10.260Z,100249.39
2018-12-26T04:25:39.262Z,100236.77
2018-12-26T04:28:08.813Z,100239.29
2018-12-26T04:30:38.251Z,100242.73
2018-12-26T04:33:07.314Z,100252.25
2018-12-26T04:35:37.735Z,100253.61
2018-12-26T04:38:07.323Z,100239.94
2018-12-26T04:40:36.962Z,100219.81
2018-12-26T04:43:06.765Z,100229.15
2018-12-26T04:45:35.816Z,100226.09
2018-12-26T04:48:05.567Z,100225.09
2018-12-26T04:50:36.020Z,100234.45
2018-12-26T04:53:05.809Z,100238.82
2018-12-26T04:55:34.985Z,100242.72
2018-12-26T04:58:04.028Z,100240.34
2018-12-26T05:00:33.689Z,100236.64
2018-12-26T05:03:02.378Z,100237.07
2018-12-26T05:05:32.243Z,100236.72
2018-12-26T05:08:01.872Z,100230.98
2018-12-26T05:10:31.583Z,100227.86
2018-12-26T05:13:00.580Z,100220.90
2018-12-26T05:15:29.156Z,100221.63
2018-12-26T05:17:59.270Z,100226.02
2018-12-26T05:20:30.961Z,100231.59
2018-12-26T05:23:00.570Z,100215.95
2018-12-26T05:25:29.633Z,100231.25
2018-12-26T05:27:58.506Z,100222.98
2018-12-26T05:30:27.539Z,100224.38
2018-12-26T05:32:56.515Z,100232.37
2018-12-26T05:35:25.400Z,100240.64
2018-12-26T05:37:54.904Z,100231.58
2018-12-26T05:40:23.907Z,100238.05
2018-12-26T05:42:53.618Z,100238.10
2018-12-26T05:45:22.591Z,100236.23
2018-12-26T05:47:51.604Z,100244.66
2018-12-26T05:50:20.709Z,100239.30
2018-12-26T05:52:49.714Z,100239.75
2018-12-26T05:55:18.661Z,100240.97
2018-12-26T05:57:47.241Z,100245.58
2018-12-26T06:00:16.279Z,100247.00
2018-12-26T06:02:44.897Z,100254.53
2018-12-26T06:05:13.940Z,100254.28
2018-12-26T06:07:42.963Z,100251.53
2018-12-26T06:10:12.668Z,100256.36
2018-12-26T06:12:41.642Z,100267.66
2018-12-26T06:15:10.193Z,100256.07
2018-12-26T06:17:39.321Z,100271.37
2018-12-26T06:20:08.345Z,100276.23
2018-12-26T06:22:37.964Z,100270.01
2018-12-26T06:25:07.030Z,100287.08
2018-12-26T06:27:36.033Z,100268.55
2018-12-26T06:30:05.778Z,100268.00
2018-12-26T06:32:36.038Z,100267.87
2018-12-26T06:35:04.559Z,100272.48
2018-12-26T06:37:33.514Z,100272.91
2018-12-26T06:40:03.426Z,100268.52
2018-12-26T06:42:31.957Z,100263.44
2018-12-26T06:45:01.049Z,100265.93
2018-12-26T06:47:30.015Z,100262.05
2018-12-26T06:49:58.525Z,100276.77
2018-12-26T06:52:27.464Z,100263.34
2018-12-26T06:54:56.127Z,100264.75
2018-12-26T06:57:24.626Z,100260.02
2018-12-26T06:59:53.644Z,100269.59
2018-12-26T07:02:22.220Z,100272.94
2018-12-26T07:04:51.200Z,100273.52
2018-12-26T07:07:20.189Z,100274.33
2018-12-26T07:09:49.290Z,100279.77
2018-12-26T07:12:18.262Z,100275.69
2018-12-26T07:14:46.763Z,100282.79
2018-12-26T07:17:15.425Z,100264.66
2018-12-26T07:19:44.048Z,100272.34
2018-12-26T07:22:12.862Z,100272.02
2018-12-26T07:24:41.812Z,100272.23
2018-12-26T07:27:10.827Z,100279.48
2018-12-26T07:29:39.821Z,100271.65
2018-12-26T07:32:10.299Z,100275.81
2018-12-26T07:34:42.314Z,100277.48
2018-12-26T07:37:11.329Z,100266.63
2018-12-26T07:39:39.895Z,100275.81
2018-12-26T07:42:09.610Z,100274.41
2018-12-26T07:44:39.792Z,100276.69
2018-12-26T07:47:09.594Z,100281.44
2018-12-26T07:49:40.095Z,100279.80
2018-12-26T07:52:13.490Z,100278.51
2018-12-26T07:54:42.432Z,100275.31
2018-12-26T07:57:11.463Z,100283.73
2018-12-26T07:59:39.956Z,100276.67
2018-12-26T08:02:08.924Z,100279.44
2018-12-26T08:04:37.656Z,100283.02
2018-12-26T08:07:06.276Z,100280.80
2018-12-26T08:09:35.371Z,100279.05
2018-12-26T08:12:04.388Z,100287.45
2018-12-26T08:14:33.054Z,100278.22
2018-12-26T08:17:02.150Z,100286.37
2018-12-26T08:19:30.900Z,100284.87
2018-12-26T08:21:59.759Z,100288.58
2018-12-26T08:24:28.940Z,100282.95
2018-12-26T08:26:57.902Z,100282.48
2018-12-26T08:29:26.537Z,100291.91
2018-12-26T08:31:55.508Z,100281.94
2018-12-26T08:34:24.141Z,100274.52
2018-12-26T08:36:52.699Z,100277.73
2018-12-26T08:39:21.718Z,100274.34
2018-12-26T08:41:50.306Z,100262.55
2018-12-26T08:44:19.191Z,100270.98
2018-12-26T08:46:47.843Z,100286.18
2018-12-26T08:49:16.807Z,100274.25
2018-12-26T08:51:45.803Z,100283.02
2018-12-26T08:54:14.552Z,100273.45
2018-12-26T08:56:43.511Z,100284.03
2018-12-26T08:59:12.101Z,100272.77
2018-12-26T09:01:41.098Z,100267.02
2018-12-26T09:04:10.950Z,100267.60
2018-12-26T09:06:39.948Z,100272.97
2018-12-26T09:09:09.010Z,100273.22
2018-12-26T09:11:38.157Z,100269.98
2018-12-26T09:14:07.214Z,100272.48
2018-12-26T09:16:36.433Z,100271.90
2018-12-26T09:19:05.450Z,100257.84
2018-12-26T09:21:34.491Z,100261.03
2018-12-26T09:24:03.125Z,100263.33
2018-12-26T09:26:32.100Z,100265.70
2018-12-26T09:29:01.098Z,100285.45
2018-12-26T09:31:30.213Z,100267.18
2018-12-26T09:33:59.240Z,100274.97
2018-12-26T09:36:28.201Z,100297.45
2018-12-26T09:38:57.987Z,100269.12
2018-12-26T09:41:26.973Z,100271.28
2018-12-26T09:43:57.709Z,100273.67
2018-12-26T09:46:26.758Z,100266.17
2018-12-26T09:48:55.498Z,100270.02
2018-12-26T09:51:24.407Z,100264.50
2018-12-26T09:53:55.610Z,100270.10
2018-12-26T09:56:24.234Z,100271.38
2018-12-26T09:58:53.169Z,100258.34
2018-12-26T10:01:22.183Z,100258.43
2018-12-26T10:03:51.109Z,100260.11
2018-12-26T10:06:20.069Z,100258.07
2018-12-26T10:08:49.460Z,100252.75
2018-12-26T10:11:18.762Z,100259.11
2018-12-26T10:13:47.423Z,100254.83
2018-12-26T10:16:16.398Z,100245.23
2018-12-26T10:18:45.013Z,100254.33
2018-12-26T10:21:14.022Z,100259.02
2018-12-26T10:23:43.026Z,100256.24
2018-12-26T10:26:11.687Z,100240.10
2018-12-26T10:28:40.763Z,100254.98
2018-12-26T10:31:09.555Z,100239.51
2018-12-26T10:33:38.564Z,100237.70
2018-12-26T10:36:07.679Z,100234.25
2018-12-26T10:38:36.703Z,100232.73
2018-12-26T10:41:05.713Z,100234.52
2018-12-26T10:43:34.449Z,100229.48
2018-12-26T10:46:03.432Z,100231.02
2018-12-26T10:48:34.291Z,100239.12
2018-12-26T10:51:03.210Z,100245.95
2018-12-26T10:53:32.267Z,100241.98
2018-12-26T10:56:00.935Z,100235.75
2018-12-26T10:58:29.920Z,100243.66
2018-12-26T11:00:58.982Z,100231.83
2018-12-26T11:03:27.981Z,100220.47
2018-12-26T11:05:57.128Z,100216.64
2018-12-26T11:08:26.217Z,100218.78
2018-12-26T11:10:54.804Z,100223.53
2018-12-26T11:13:23.393Z,100235.80
2018-12-26T11:15:52.407Z,100240.77
2018-12-26T11:18:21.820Z,100236.85
2018-12-26T11:20:50.463Z,100224.42
2018-12-26T11:23:19.241Z,100231.56
2018-12-26T11:25:48.217Z,100239.83
2018-12-26T11:28:17.471Z,100227.67
2018-12-26T11:30:46.565Z,100229.80
2018-12-26T11:33:15.227Z,100231.41
2018-12-26T11:35:44.375Z,100238.48
2018-12-26T11:38:13.650Z,100236.93
2018-12-26T11:40:42.573Z,100242.36
2018-12-26T11:43:11.540Z,100248.30
2018-12-26T11:45:40.690Z,100244.30
2018-12-26T11:48:10.392Z,100241.05
2018-12-26T11:50:39.917Z,100258.00
2018-12-26T11:53:09.448Z,100249.88
2018-12-26T11:55:39.269Z,100258.97
2018-12-26T11:58:08.220Z,100247.27
2018-12-26T12:00:37.336Z,100248.92
2018-12-26T12:03:07.089Z,100251.27
2018-12-26T12:05:37.308Z,100250.05
2018-12-26T12:08:07.002Z,100253.09
2018-12-26T12:10:36.157Z,100247.88
2018-12-26T12:13:04.612Z,100253.78
2018-12-26T12:15:34.763Z,100262.45
2018-12-26T12:18:04.972Z,100263.51
2018-12-26T12:20:34.841Z,100268.41
2018-12-26T12:23:04.545Z,100269.81
2018-12-26T12:25:34.260Z,100267.61
2018-12-26T12:28:04.073Z,100267.72
2018-12-26T12:30:32.254Z,100265.01
2018-12-26T12:33:00.785Z,100274.91
2018-12-26T12:35:32.240Z,100277.30
2018-12-26T12:38:01.922Z,100272.17
2018-12-26T12:40:30.905Z,100275.47
2018-12-26T12:43:00.503Z,100276.73
2018-12-26T12:45:30.297Z,100276.73
2018-12-26T12:47:59.058Z,100269.89
2018-12-26T12:50:27.937Z,100275.23
2018-12-26T12:52:56.910Z,100279.09
2018-12-26T12:55:25.415Z,100278.07
2018-12-26T12:57:53.868Z,100275.85
2018-12-26T13:00:22.527Z,100273.72
2018-12-26T13:03:00.091Z,100276.34
2018-12-26T13:05:21.829Z,100276.29
2018-12-26T13:07:50.993Z,100293.61
2018-12-26T13:10:19.540Z,100272.92
2018-12-26T13:12:48.199Z,100276.34
2018-12-26T13:15:17.278Z,100277.77
2018-12-26T13:17:45.914Z,100283.80
2018-12-26T13:20:15.570Z,100276.52
2018-12-26T13:22:44.788Z,100288.66
2018-12-26T13:25:12.881Z,100293.48
2018-12-26T13:27:41.941Z,100286.33
2018-12-26T13:30:10.988Z,100298.96
2018-12-26T13:32:40.526Z,100289.70
2018-12-26T13:35:09.999Z,100291.40
2018-12-26T13:37:39.013Z,100299.76
2018-12-26T13:40:08.693Z,100292.64
2018-12-26T13:42:36.801Z,100288.06
2018-12-26T13:45:05.129Z,100292.39
2018-12-26T13:47:34.043Z,100280.72
2018-12-26T13:50:02.542Z,100283.68
2018-12-26T13:52:31.570Z,100283.37
2018-12-26T13:55:00.300Z,100287.37
2018-12-26T13:57:29.217Z,100285.80
2018-12-26T14:00:02.227Z,100285.66
2018-12-26T14:02:27.536Z,100291.07
2018-12-26T14:04:56.188Z,100291.96
2018-12-26T14:07:24.867Z,100289.52
2018-12-26T14:09:53.913Z,100284.16
2018-12-26T14:12:22.926Z,100287.83
2018-12-26T14:14:51.695Z,100286.37
2018-12-26T14:17:20.212Z,100293.28
2018-12-26T14:19:49.240Z,100292.02
2018-12-26T14:22:18.506Z,100300.61
2018-12-26T14:24:47.670Z,100308.02
2018-12-26T14:27:17.787Z,100312.78
2018-12-26T14:29:46.337Z,100312.98
2018-12-26T14:32:14.801Z,100316.89
2018-12-26T14:34:43.357Z,100313.55
2018-12-26T14:37:12.400Z,100312.08
2018-12-26T14:39:42.696Z,100305.55
2018-12-26T14:42:11.942Z,100316.91
2018-12-26T14:44:41.708Z,100309.69
2018-12-26T14:47:10.980Z,100309.05
2018-12-26T14:49:40.817Z,100302.37
2018-12-26T14:52:10.629Z,100304.97
2018-12-26T14:54:40.299Z,100302.31
2018-12-26T14:57:10.129Z,100303.04
2018-12-26T14:59:39.412Z,100306.21
2018-12-26T15:02:08.402Z,100310.52
2018-12-26T15:04:38.121Z,100310.89
2018-12-26T15:07:07.061Z,100314.07
2018-12-26T15:09:36.080Z,100326.19
2018-12-26T15:12:04.185Z,100316.89
2018-12-26T15:14:32.403Z,100334.37
2018-12-26T15:17:01.539Z,100322.80
2018-12-26T15:19:31.295Z,100332.65
2018-12-26T15:22:00.509Z,100323.88
2018-12-26T15:24:29.549Z,100326.31
2018-12-26T15:26:59.283Z,100329.13
2018-12-26T15:29:29.277Z,100328.81
2018-12-26T15:31:58.425Z,100318.55
2018-12-26T15:34:28.228Z,100319.31
2018-12-26T15:36:56.842Z,100323.09
2018-12-26T15:39:26.509Z,100325.58
2018-12-26T15:41:55.544Z,100323.15
2018-12-26T15:44:25.519Z,100324.98
2018-12-26T15:46:55.232Z,100326.34
2018-12-26T15:49:24.897Z,100322.70
2018-12-26T15:51:54.634Z,100336.19
2018-12-26T15:54:24.367Z,100326.84
2018-12-26T15:56:54.061Z,100330.77
2018-12-26T15:59:23.827Z,100334.38
2018-12-26T16:01:53.585Z,100327.45
2018-12-26T16:04:22.692Z,100345.05
2018-12-26T16:06:52.596Z,100325.29
2018-12-26T16:09:22.423Z,100336.23
2018-12-26T16:11:52.242Z,100329.02
2018-12-26T16:14:22.034Z,100327.95
2018-12-26T16:16:51.759Z,100335.37
2018-12-26T16:19:21.448Z,100343.64
2018-12-26T16:21:50.662Z,100336.57
2018-12-26T16:24:20.371Z,100340.22
2018-12-26T16:26:50.187Z,100332.09
2018-12-26T16:29:19.968Z,100333.95
2018-12-26T16:31:49.684Z,100333.84
2018-12-26T16:34:19.507Z,100338.13
2018-12-26T16:36:49.328Z,100330.09
2018-12-26T16:39:18.423Z,100332.39
2018-12-26T16:41:47.545Z,100345.55
2018-12-26T16:44:17.343Z,100346.64
2018-12-26T16:46:46.374Z,100344.41
2018-12-26T16:49:16.028Z,100338.03
2018-12-26T16:51:45.848Z,100351.53
2018-12-26T16:54:15.536Z,100365.66
2018-12-26T16:56:45.460Z,100351.56
2018-12-26T16:59:20.121Z,100343.65
2018-12-26T17:01:49.801Z,100357.80
2018-12-26T17:04:20.314Z,100347.94
2018-12-26T17:06:49.378Z,100348.27
2018-12-26T17:09:19.164Z,100354.00
2018-12-26T17:11:48.952Z,100360.44
2018-12-26T17:14:18.768Z,100353.72
2018-12-26T17:16:48.596Z,100348.70
2018-12-26T17:19:18.421Z,100355.37
2018-12-26T17:21:48.196Z,100356.06
2018-12-26T17:24:17.968Z,100350.81
2018-12-26T17:26:47.747Z,100355.34
2018-12-26T17:29:18.153Z,100358.77
2018-12-26T17:31:47.868Z,100360.89
2018-12-26T17:34:17.014Z,100366.02
2018-12-26T17:36:46.666Z,100370.69
2018-12-26T17:39:16.384Z,100366.37
2018-12-26T17:41:46.208Z,100366.88
2018-12-26T17:44:15.300Z,100368.81
2018-12-26T17:46:45.119Z,100366.59
2018-12-26T17:49:15.508Z,100380.15
2018-12-26T17:51:45.241Z,100375.17
2018-12-26T17:54:15.140Z,100378.95
2018-12-26T17:56:44.361Z,100375.38
2018-12-26T17:59:14.168Z,100377.34
2018-12-26T18:01:43.874Z,100387.28
2018-12-26T18:04:13.806Z,100378.97
2018-12-26T18:06:43.598Z,100378.63
2018-12-26T18:09:13.422Z,100376.20
2018-12-26T18:11:43.225Z,100381.74
2018-12-26T18:14:12.934Z,100378.86
2018-12-26T18:16:41.497Z,100387.66
2018-12-26T18:19:09.683Z,100379.53
2018-12-26T18:21:39.307Z,100385.61
2018-12-26T18:24:09.019Z,100382.83
2018-12-26T18:26:38.067Z,100383.42
2018-12-26T18:29:07.549Z,100383.16
2018-12-26T18:31:36.904Z,100390.98
2018-12-26T18:34:06.006Z,100379.55
2018-12-26T18:36:35.095Z,100381.30
2018-12-26T18:39:05.155Z,100379.59
2018-12-26T18:41:33.358Z,100381.41
2018-12-26T18:44:01.881Z,100393.34
2018-12-26T18:46:31.985Z,100384.48
2018-12-26T18:49:01.696Z,100381.31
2018-12-26T18:51:30.943Z,100377.27
2018-12-26T18:54:00.726Z,100375.05
2018-12-26T18:56:29.906Z,100368.66
2018-12-26T18:59:00.175Z,100377.56
2018-12-26T19:01:30.744Z,100386.89
2018-12-26T19:04:00.792Z,100388.86
2018-12-26T19:06:30.523Z,100384.02
2018-12-26T19:09:00.204Z,100384.47
2018-12-26T19:11:28.795Z,100387.75
2018-12-26T19:13:57.907Z,100388.66
2018-12-26T19:16:26.988Z,100387.03
2018-12-26T19:18:56.282Z,100391.66
2018-12-26T19:21:25.005Z,100382.25
2018-12-26T19:23:53.518Z,100384.97
2018-12-26T19:26:23.287Z,100389.48
2018-12-26T19:28:52.114Z,100385.45
2018-12-26T19:31:21.676Z,100387.84
2018-12-26T19:33:50.426Z,100389.83
2018-12-26T19:36:19.111Z,100394.73
2018-12-26T19:38:47.564Z,100390.33
2018-12-26T19:41:17.275Z,100390.06
2018-12-26T19:43:46.183Z,100396.89
2018-12-26T19:46:15.441Z,100393.84
2018-12-26T19:48:44.498Z,100400.03
2018-12-26T19:51:12.593Z,100399.51
2018-12-26T19:53:42.062Z,100395.26
2018-12-26T19:56:10.769Z,100403.63
2018-12-26T19:58:39.846Z,100399.37
2018-12-26T20:01:08.422Z,100397.96
2018-12-26T20:03:36.918Z,100399.66
2018-12-26T20:06:05.934Z,100395.47
2018-12-26T20:08:34.921Z,100398.16
2018-12-26T20:11:04.626Z,100397.29
2018-12-26T20:13:35.326Z,100399.98
2018-12-26T20:16:04.681Z,100399.22
2018-12-26T20:18:33.853Z,100394.61
2018-12-26T20:21:02.588Z,100398.47
2018-12-26T20:23:31.467Z,100394.95
2018-12-26T20:26:00.239Z,100392.84
2018-12-26T20:28:30.361Z,100383.84
2018-12-26T20:30:58.658Z,100387.11
2018-12-26T20:33:29.245Z,100384.00
2018-12-26T20:35:57.372Z,100397.80
2018-12-26T20:38:25.870Z,100390.19
2018-12-26T20:40:54.034Z,100391.30
2018-12-26T20:43:23.739Z,100388.39
2018-12-26T20:45:52.462Z,100390.25
2018-12-26T20:48:22.188Z,100389.94
2018-12-26T20:50:51.734Z,100394.77
2018-12-26T20:53:38.534Z,100391.51
2018-12-26T20:56:09.845Z,100389.86
2018-12-26T20:58:39.392Z,100390.30
2018-12-26T21:01:08.937Z,100389.65
2018-12-26T21:03:38.513Z,100392.09
2018-12-26T21:06:08.511Z,100389.47
2018-12-26T21:08:37.270Z,100392.66
2018-12-26T21:11:05.959Z,100390.06
2018-12-26T21:13:36.237Z,100390.97
2018-12-26T21:16:06.076Z,100391.05
2018-12-26T21:18:35.045Z,100385.05
2018-12-26T21:21:03.720Z,100383.64
2018-12-26T21:23:32.750Z,100379.77
2018-12-26T21:26:01.005Z,100387.66
2018-12-26T21:28:29.181Z,100383.52
2018-12-26T21:30:59.127Z,100379.93
2018-12-26T21:33:29.203Z,100380.78
2018-12-26T21:35:57.307Z,100377.27
2018-12-26T21:38:25.999Z,100385.80
2018-12-26T21:40:54.608Z,100380.70
2018-12-26T21:43:23.676Z,100381.77
2018-12-26T21:45:52.664Z,100376.32
2018-12-26T21:48:21.663Z,100380.58
2018-12-26T21:50:51.309Z,100386.73
2018-12-26T21:53:21.189Z,100384.30
2018-12-26T21:55:50.835Z,100392.60
2018-12-26T21:58:19.941Z,100391.41
2018-12-26T22:00:49.227Z,100386.88
2018-12-26T22:03:18.185Z,100385.74
2018-12-26T22:05:47.839Z,100380.42
2018-12-26T22:08:17.643Z,100383.29
2018-12-26T22:10:47.363Z,100379.97
2018-12-26T22:13:18.389Z,100381.09
2018-12-26T22:15:47.832Z,100375.66
2018-12-26T22:18:17.637Z,100379.27
2018-12-26T22:20:47.292Z,100381.18
2018-12-26T22:23:17.018Z,100376.13
2018-12-26T22:25:46.745Z,100376.98
2018-12-26T22:28:16.360Z,100380.39
2018-12-26T22:30:45.588Z,100377.78
2018-12-26T22:33:15.534Z,100377.34
2018-12-26T22:35:44.931Z,100383.41
2018-12-26T22:38:14.680Z,100373.55
2018-12-26T22:40:43.783Z,100375.84
2018-12-26T22:43:15.443Z,100376.62
2018-12-26T22:45:45.124Z,100374.73
2018-12-26T22:48:14.736Z,100377.77
2018-12-26T22:50:44.484Z,100378.23
2018-12-26T22:53:14.380Z,100377.20
2018-12-26T22:55:44.184Z,100377.51
2018-12-26T22:58:14.026Z,100374.34
2018-12-26T23:00:50.266Z,100373.45
2018-12-26T23:03:19.972Z,100377.50
2018-12-26T23:05:49.108Z,100376.05
2018-12-26T23:08:18.869Z,100378.89
2018-12-26T23:10:48.495Z,100380.48
2018-12-26T23:13:17.596Z,100378.03
2018-12-26T23:15:46.905Z,100376.91
2018-12-26T23:18:16.727Z,100381.34
2018-12-26T23:20:46.347Z,100378.44
2018-12-26T23:23:15.978Z,100388.13
2018-12-26T23:25:45.625Z,100380.47
2018-12-26T23:28:15.232Z,100372.97
2018-12-26T23:30:44.439Z,100379.54
2018-12-26T23:33:14.233Z,100373.28
2018-12-26T23:35:43.877Z,100375.27
2018-12-26T23:38:14.097Z,100373.62
2018-12-26T23:40:43.152Z,100377.38
2018-12-26T23:43:13.210Z,100371.63
2018-12-26T23:45:43.108Z,100369.48
2018-12-26T23:48:13.020Z,100366.98
2018-12-26T23:50:41.964Z,100373.61
2018-12-26T23:53:11.743Z,100361.13
2018-12-26T23:55:41.623Z,100364.78
2018-12-26T23:58:11.946Z,100371.96
